sensor_id;sensor_type;location;lat;lon;timestamp;P1;durP1;ratioP1;P2;durP2;ratioP2
64820;SDS011;51256;55.654;37.264;2022-07-23T00:01:33;16.95;;;8.77;;
64820;SDS011;51256;55.654;37.264;2022-07-23T00:04:00;18.55;;;8.95;;
64820;SDS011;51256;55.654;37.264;2022-07-23T00:06:25;18.38;;;9.35;;
64820;SDS011;51256;55.654;37.264;2022-07-23T00:08:51;17.73;;;9.40;;
64820;SDS011;51256;55.654;37.264;2022-07-23T00:11:17;20.02;;;9.18;;
64820;SDS011;51256;55.654;37.264;2022-07-23T00:13:42;24.23;;;9.90;;
64820;SDS011;51256;55.654;37.264;2022-07-23T00:16:08;18.33;;;9.30;;
64820;SDS011;51256;55.654;37.264;2022-07-23T00:18:34;17.08;;;9.13;;
64820;SDS011;51256;55.654;37.264;2022-07-23T00:20:59;17.65;;;8.95;;
64820;SDS011;51256;55.654;37.264;2022-07-23T00:23:25;21.48;;;9.10;;
64820;SDS011;51256;55.654;37.264;2022-07-23T00:25:51;15.18;;;9.25;;
64820;SDS011;51256;55.654;37.264;2022-07-23T00:28:17;22.05;;;9.77;;
64820;SDS011;51256;55.654;37.264;2022-07-23T00:30:43;20.08;;;10.00;;
64820;SDS011;51256;55.654;37.264;2022-07-23T00:33:09;29.17;;;9.40;;
64820;SDS011;51256;55.654;37.264;2022-07-23T00:35:36;22.05;;;9.57;;
64820;SDS011;51256;55.654;37.264;2022-07-23T00:40:31;19.83;;;9.27;;
64820;SDS011;51256;55.654;37.264;2022-07-23T00:42:57;17.40;;;8.85;;
64820;SDS011;51256;55.654;37.264;2022-07-23T00:45:24;14.70;;;8.38;;
64820;SDS011;51256;55.654;37.264;2022-07-23T00:47:50;13.20;;;9.02;;
64820;SDS011;51256;55.654;37.264;2022-07-23T00:50:15;22.52;;;9.45;;
64820;SDS011;51256;55.654;37.264;2022-07-23T00:52:41;22.33;;;9.65;;
64820;SDS011;51256;55.654;37.264;2022-07-23T00:55:07;18.20;;;9.60;;
64820;SDS011;51256;55.654;37.264;2022-07-23T00:57:33;23.67;;;9.70;;
64820;SDS011;51256;55.654;37.264;2022-07-23T01:00:00;18.30;;;8.85;;
64820;SDS011;51256;55.654;37.264;2022-07-23T01:02:26;17.75;;;9.18;;
64820;SDS011;51256;55.654;37.264;2022-07-23T01:04:52;18.48;;;8.73;;
64820;SDS011;51256;55.654;37.264;2022-07-23T01:07:18;15.35;;;8.65;;
64820;SDS011;51256;55.654;37.264;2022-07-23T01:09:44;18.83;;;9.13;;
64820;SDS011;51256;55.654;37.264;2022-07-23T01:12:10;19.48;;;9.30;;
64820;SDS011;51256;55.654;37.264;2022-07-23T01:14:36;17.88;;;9.35;;
64820;SDS011;51256;55.654;37.264;2022-07-23T01:17:02;14.88;;;8.90;;
64820;SDS011;51256;55.654;37.264;2022-07-23T01:19:27;18.95;;;9.27;;
64820;SDS011;51256;55.654;37.264;2022-07-23T01:21:53;16.00;;;9.02;;
64820;SDS011;51256;55.654;37.264;2022-07-23T01:24:21;16.13;;;8.65;;
64820;SDS011;51256;55.654;37.264;2022-07-23T01:26:47;15.27;;;9.57;;
64820;SDS011;51256;55.654;37.264;2022-07-23T01:29:14;21.55;;;9.57;;
64820;SDS011;51256;55.654;37.264;2022-07-23T01:31:41;17.30;;;9.57;;
64820;SDS011;51256;55.654;37.264;2022-07-23T01:34:07;18.90;;;9.88;;
64820;SDS011;51256;55.654;37.264;2022-07-23T01:36:35;23.13;;;9.55;;
64820;SDS011;51256;55.654;37.264;2022-07-23T01:39:02;18.75;;;10.05;;
64820;SDS011;51256;55.654;37.264;2022-07-23T01:41:29;18.83;;;9.43;;
64820;SDS011;51256;55.654;37.264;2022-07-23T01:43:54;20.40;;;10.20;;
64820;SDS011;51256;55.654;37.264;2022-07-23T01:46:20;15.70;;;10.25;;
64820;SDS011;51256;55.654;37.264;2022-07-23T01:48:46;23.83;;;10.35;;
64820;SDS011;51256;55.654;37.264;2022-07-23T01:51:11;13.48;;;8.77;;
64820;SDS011;51256;55.654;37.264;2022-07-23T01:53:36;13.98;;;9.45;;
64820;SDS011;51256;55.654;37.264;2022-07-23T01:56:02;16.05;;;9.52;;
64820;SDS011;51256;55.654;37.264;2022-07-23T01:58:28;19.38;;;9.70;;
64820;SDS011;51256;55.654;37.264;2022-07-23T02:00:54;21.80;;;10.05;;
64820;SDS011;51256;55.654;37.264;2022-07-23T02:03:21;17.90;;;8.95;;
64820;SDS011;51256;55.654;37.264;2022-07-23T02:05:47;15.45;;;9.40;;
64820;SDS011;51256;55.654;37.264;2022-07-23T02:08:12;24.33;;;10.48;;
64820;SDS011;51256;55.654;37.264;2022-07-23T02:10:38;21.20;;;10.30;;
64820;SDS011;51256;55.654;37.264;2022-07-23T02:13:03;21.70;;;11.18;;
64820;SDS011;51256;55.654;37.264;2022-07-23T02:15:30;16.80;;;9.68;;
64820;SDS011;51256;55.654;37.264;2022-07-23T02:17:55;16.90;;;9.60;;
64820;SDS011;51256;55.654;37.264;2022-07-23T02:20:21;16.65;;;9.80;;
64820;SDS011;51256;55.654;37.264;2022-07-23T02:22:46;17.95;;;10.85;;
64820;SDS011;51256;55.654;37.264;2022-07-23T02:25:12;17.25;;;10.52;;
64820;SDS011;51256;55.654;37.264;2022-07-23T02:27:38;16.05;;;10.38;;
64820;SDS011;51256;55.654;37.264;2022-07-23T02:30:04;17.50;;;10.32;;
64820;SDS011;51256;55.654;37.264;2022-07-23T02:32:30;18.92;;;10.48;;
64820;SDS011;51256;55.654;37.264;2022-07-23T02:34:55;17.48;;;11.02;;
64820;SDS011;51256;55.654;37.264;2022-07-23T02:37:21;14.90;;;8.75;;
64820;SDS011;51256;55.654;37.264;2022-07-23T02:39:46;20.02;;;10.80;;
64820;SDS011;51256;55.654;37.264;2022-07-23T02:42:13;15.68;;;11.05;;
64820;SDS011;51256;55.654;37.264;2022-07-23T02:44:39;19.92;;;10.35;;
64820;SDS011;51256;55.654;37.264;2022-07-23T02:47:05;18.23;;;10.25;;
64820;SDS011;51256;55.654;37.264;2022-07-23T02:49:30;16.85;;;10.10;;
64820;SDS011;51256;55.654;37.264;2022-07-23T02:51:56;23.80;;;10.40;;
64820;SDS011;51256;55.654;37.264;2022-07-23T02:54:22;19.17;;;10.32;;
64820;SDS011;51256;55.654;37.264;2022-07-23T02:56:47;22.67;;;11.27;;
64820;SDS011;51256;55.654;37.264;2022-07-23T02:59:13;18.10;;;10.63;;
64820;SDS011;51256;55.654;37.264;2022-07-23T03:01:38;26.33;;;12.07;;
64820;SDS011;51256;55.654;37.264;2022-07-23T03:04:04;21.50;;;11.80;;
64820;SDS011;51256;55.654;37.264;2022-07-23T03:06:29;23.60;;;11.55;;
64820;SDS011;51256;55.654;37.264;2022-07-23T03:08:55;19.15;;;11.35;;
64820;SDS011;51256;55.654;37.264;2022-07-23T03:11:20;18.23;;;11.70;;
64820;SDS011;51256;55.654;37.264;2022-07-23T03:13:46;18.40;;;11.77;;
64820;SDS011;51256;55.654;37.264;2022-07-23T03:16:11;16.23;;;11.15;;
64820;SDS011;51256;55.654;37.264;2022-07-23T03:18:37;22.00;;;12.10;;
64820;SDS011;51256;55.654;37.264;2022-07-23T03:21:02;23.25;;;11.60;;
64820;SDS011;51256;55.654;37.264;2022-07-23T03:23:28;18.08;;;11.60;;
64820;SDS011;51256;55.654;37.264;2022-07-23T03:25:53;15.60;;;10.57;;
64820;SDS011;51256;55.654;37.264;2022-07-23T03:28:19;16.67;;;10.70;;
64820;SDS011;51256;55.654;37.264;2022-07-23T03:30:45;16.77;;;10.82;;
64820;SDS011;51256;55.654;37.264;2022-07-23T03:33:15;14.70;;;10.88;;
64820;SDS011;51256;55.654;37.264;2022-07-23T03:35:42;13.52;;;10.00;;
64820;SDS011;51256;55.654;37.264;2022-07-23T03:38:10;13.95;;;10.57;;
64820;SDS011;51256;55.654;37.264;2022-07-23T03:40:36;14.10;;;10.18;;
64820;SDS011;51256;55.654;37.264;2022-07-23T03:43:02;18.17;;;9.75;;
64820;SDS011;51256;55.654;37.264;2022-07-23T03:45:27;16.05;;;10.48;;
64820;SDS011;51256;55.654;37.264;2022-07-23T03:47:53;18.48;;;10.02;;
64820;SDS011;51256;55.654;37.264;2022-07-23T03:50:19;15.55;;;9.88;;
64820;SDS011;51256;55.654;37.264;2022-07-23T03:52:44;13.63;;;10.23;;
64820;SDS011;51256;55.654;37.264;2022-07-23T03:55:10;15.63;;;10.40;;
64820;SDS011;51256;55.654;37.264;2022-07-23T03:57:36;15.10;;;10.23;;
64820;SDS011;51256;55.654;37.264;2022-07-23T04:00:02;18.38;;;10.15;;
64820;SDS011;51256;55.654;37.264;2022-07-23T04:02:30;19.05;;;10.13;;
64820;SDS011;51256;55.654;37.264;2022-07-23T04:04:55;16.27;;;10.60;;
64820;SDS011;51256;55.654;37.264;2022-07-23T04:07:21;18.45;;;10.40;;
64820;SDS011;51256;55.654;37.264;2022-07-23T04:09:47;16.63;;;10.02;;
64820;SDS011;51256;55.654;37.264;2022-07-23T04:12:13;19.90;;;10.48;;
64820;SDS011;51256;55.654;37.264;2022-07-23T04:14:38;16.40;;;10.30;;
64820;SDS011;51256;55.654;37.264;2022-07-23T04:17:04;14.75;;;9.98;;
64820;SDS011;51256;55.654;37.264;2022-07-23T04:19:29;19.00;;;10.65;;
64820;SDS011;51256;55.654;37.264;2022-07-23T04:21:55;17.73;;;10.77;;
64820;SDS011;51256;55.654;37.264;2022-07-23T04:24:21;17.73;;;10.13;;
64820;SDS011;51256;55.654;37.264;2022-07-23T04:26:47;14.82;;;10.10;;
64820;SDS011;51256;55.654;37.264;2022-07-23T04:29:12;18.42;;;10.75;;
64820;SDS011;51256;55.654;37.264;2022-07-23T04:31:38;13.85;;;9.82;;
64820;SDS011;51256;55.654;37.264;2022-07-23T04:34:03;16.70;;;10.68;;
64820;SDS011;51256;55.654;37.264;2022-07-23T04:36:29;16.08;;;10.32;;
64820;SDS011;51256;55.654;37.264;2022-07-23T04:38:55;15.52;;;10.25;;
64820;SDS011;51256;55.654;37.264;2022-07-23T04:41:20;15.32;;;10.88;;
64820;SDS011;51256;55.654;37.264;2022-07-23T04:43:46;15.73;;;10.25;;
64820;SDS011;51256;55.654;37.264;2022-07-23T04:46:11;13.43;;;10.25;;
64820;SDS011;51256;55.654;37.264;2022-07-23T04:48:37;16.30;;;10.90;;
64820;SDS011;51256;55.654;37.264;2022-07-23T04:51:03;14.15;;;10.52;;
64820;SDS011;51256;55.654;37.264;2022-07-23T04:53:29;14.93;;;9.73;;
64820;SDS011;51256;55.654;37.264;2022-07-23T04:55:55;12.80;;;10.32;;
64820;SDS011;51256;55.654;37.264;2022-07-23T04:58:22;18.42;;;10.50;;
64820;SDS011;51256;55.654;37.264;2022-07-23T05:00:47;16.00;;;10.52;;
64820;SDS011;51256;55.654;37.264;2022-07-23T05:03:13;19.75;;;10.02;;
64820;SDS011;51256;55.654;37.264;2022-07-23T05:05:39;15.63;;;10.55;;
64820;SDS011;51256;55.654;37.264;2022-07-23T05:08:04;15.20;;;10.68;;
64820;SDS011;51256;55.654;37.264;2022-07-23T05:10:30;18.77;;;10.70;;
64820;SDS011;51256;55.654;37.264;2022-07-23T05:12:56;15.30;;;10.40;;
64820;SDS011;51256;55.654;37.264;2022-07-23T05:15:21;17.65;;;10.32;;
64820;SDS011;51256;55.654;37.264;2022-07-23T05:17:48;16.08;;;10.23;;
64820;SDS011;51256;55.654;37.264;2022-07-23T05:20:14;14.50;;;9.85;;
64820;SDS011;51256;55.654;37.264;2022-07-23T05:22:40;13.88;;;10.05;;
64820;SDS011;51256;55.654;37.264;2022-07-23T05:25:06;15.93;;;10.20;;
64820;SDS011;51256;55.654;37.264;2022-07-23T05:27:33;17.15;;;10.40;;
64820;SDS011;51256;55.654;37.264;2022-07-23T05:29:58;15.85;;;9.70;;
64820;SDS011;51256;55.654;37.264;2022-07-23T05:32:24;14.60;;;9.63;;
64820;SDS011;51256;55.654;37.264;2022-07-23T05:34:49;13.68;;;9.68;;
64820;SDS011;51256;55.654;37.264;2022-07-23T05:37:15;15.55;;;9.38;;
64820;SDS011;51256;55.654;37.264;2022-07-23T05:39:41;12.15;;;9.38;;
64820;SDS011;51256;55.654;37.264;2022-07-23T05:42:06;11.30;;;8.77;;
64820;SDS011;51256;55.654;37.264;2022-07-23T05:44:32;14.25;;;8.63;;
64820;SDS011;51256;55.654;37.264;2022-07-23T05:46:58;11.38;;;8.55;;
64820;SDS011;51256;55.654;37.264;2022-07-23T05:49:24;12.25;;;8.43;;
64820;SDS011;51256;55.654;37.264;2022-07-23T05:51:49;13.38;;;8.65;;
64820;SDS011;51256;55.654;37.264;2022-07-23T05:54:15;12.57;;;8.60;;
64820;SDS011;51256;55.654;37.264;2022-07-23T05:56:40;11.80;;;8.23;;
64820;SDS011;51256;55.654;37.264;2022-07-23T05:59:06;12.40;;;8.38;;
64820;SDS011;51256;55.654;37.264;2022-07-23T06:01:31;12.10;;;8.88;;
64820;SDS011;51256;55.654;37.264;2022-07-23T06:03:57;14.15;;;8.82;;
64820;SDS011;51256;55.654;37.264;2022-07-23T06:06:22;15.00;;;9.23;;
64820;SDS011;51256;55.654;37.264;2022-07-23T06:08:48;12.75;;;8.63;;
64820;SDS011;51256;55.654;37.264;2022-07-23T06:11:13;13.77;;;8.93;;
64820;SDS011;51256;55.654;37.264;2022-07-23T06:13:39;14.80;;;8.27;;
64820;SDS011;51256;55.654;37.264;2022-07-23T06:16:04;11.30;;;8.50;;
64820;SDS011;51256;55.654;37.264;2022-07-23T06:18:30;11.20;;;8.50;;
64820;SDS011;51256;55.654;37.264;2022-07-23T06:20:55;12.10;;;8.48;;
64820;SDS011;51256;55.654;37.264;2022-07-23T06:23:21;13.30;;;8.93;;
64820;SDS011;51256;55.654;37.264;2022-07-23T06:25:46;12.75;;;8.40;;
64820;SDS011;51256;55.654;37.264;2022-07-23T06:28:12;11.50;;;8.40;;
64820;SDS011;51256;55.654;37.264;2022-07-23T06:30:37;12.32;;;9.15;;
64820;SDS011;51256;55.654;37.264;2022-07-23T06:33:03;12.70;;;9.15;;
64820;SDS011;51256;55.654;37.264;2022-07-23T06:35:28;14.15;;;9.02;;
64820;SDS011;51256;55.654;37.264;2022-07-23T06:37:54;10.52;;;8.70;;
64820;SDS011;51256;55.654;37.264;2022-07-23T06:40:20;11.30;;;8.75;;
64820;SDS011;51256;55.654;37.264;2022-07-23T06:42:45;15.00;;;9.27;;
64820;SDS011;51256;55.654;37.264;2022-07-23T06:45:11;13.80;;;8.63;;
64820;SDS011;51256;55.654;37.264;2022-07-23T06:47:37;13.48;;;9.65;;
64820;SDS011;51256;55.654;37.264;2022-07-23T06:50:03;12.00;;;9.00;;
64820;SDS011;51256;55.654;37.264;2022-07-23T06:52:29;12.02;;;9.30;;
64820;SDS011;51256;55.654;37.264;2022-07-23T06:54:55;11.45;;;8.65;;
64820;SDS011;51256;55.654;37.264;2022-07-23T06:57:20;13.93;;;9.25;;
64820;SDS011;51256;55.654;37.264;2022-07-23T06:59:46;12.55;;;9.10;;
64820;SDS011;51256;55.654;37.264;2022-07-23T07:02:11;14.27;;;9.07;;
64820;SDS011;51256;55.654;37.264;2022-07-23T07:04:37;14.13;;;9.25;;
64820;SDS011;51256;55.654;37.264;2022-07-23T07:07:02;14.15;;;8.88;;
64820;SDS011;51256;55.654;37.264;2022-07-23T07:09:28;12.93;;;8.90;;
64820;SDS011;51256;55.654;37.264;2022-07-23T07:11:54;13.82;;;9.88;;
64820;SDS011;51256;55.654;37.264;2022-07-23T07:14:19;13.10;;;8.82;;
64820;SDS011;51256;55.654;37.264;2022-07-23T07:16:45;12.38;;;9.43;;
64820;SDS011;51256;55.654;37.264;2022-07-23T07:19:10;16.83;;;9.27;;
64820;SDS011;51256;55.654;37.264;2022-07-23T07:21:36;12.50;;;8.13;;
64820;SDS011;51256;55.654;37.264;2022-07-23T07:24:01;10.95;;;8.32;;
64820;SDS011;51256;55.654;37.264;2022-07-23T07:26:27;11.45;;;7.95;;
64820;SDS011;51256;55.654;37.264;2022-07-23T07:28:53;10.60;;;8.43;;
64820;SDS011;51256;55.654;37.264;2022-07-23T07:31:18;9.07;;;7.28;;
64820;SDS011;51256;55.654;37.264;2022-07-23T07:33:44;9.27;;;8.18;;
64820;SDS011;51256;55.654;37.264;2022-07-23T07:36:09;9.45;;;7.20;;
64820;SDS011;51256;55.654;37.264;2022-07-23T07:38:35;14.55;;;8.88;;
64820;SDS011;51256;55.654;37.264;2022-07-23T07:41:00;22.48;;;9.32;;
64820;SDS011;51256;55.654;37.264;2022-07-23T07:43:26;12.82;;;8.55;;
64820;SDS011;51256;55.654;37.264;2022-07-23T07:45:51;10.57;;;8.57;;
64820;SDS011;51256;55.654;37.264;2022-07-23T07:48:17;11.20;;;8.93;;
64820;SDS011;51256;55.654;37.264;2022-07-23T07:50:43;10.45;;;8.57;;
64820;SDS011;51256;55.654;37.264;2022-07-23T07:53:08;10.70;;;8.23;;
64820;SDS011;51256;55.654;37.264;2022-07-23T07:55:34;12.77;;;8.50;;
64820;SDS011;51256;55.654;37.264;2022-07-23T07:58:00;9.65;;;6.60;;
64820;SDS011;51256;55.654;37.264;2022-07-23T08:00:26;8.32;;;7.05;;
64820;SDS011;51256;55.654;37.264;2022-07-23T08:02:52;9.40;;;7.43;;
64820;SDS011;51256;55.654;37.264;2022-07-23T08:05:20;10.25;;;7.88;;
64820;SDS011;51256;55.654;37.264;2022-07-23T08:07:47;10.63;;;8.05;;
64820;SDS011;51256;55.654;37.264;2022-07-23T08:10:13;17.77;;;8.32;;
64820;SDS011;51256;55.654;37.264;2022-07-23T08:12:40;12.88;;;8.05;;
64820;SDS011;51256;55.654;37.264;2022-07-23T08:15:06;12.82;;;8.27;;
64820;SDS011;51256;55.654;37.264;2022-07-23T08:17:32;11.45;;;8.48;;
64820;SDS011;51256;55.654;37.264;2022-07-23T08:19:58;12.73;;;8.10;;
64820;SDS011;51256;55.654;37.264;2022-07-23T08:22:23;9.73;;;8.60;;
64820;SDS011;51256;55.654;37.264;2022-07-23T08:24:49;12.15;;;9.00;;
64820;SDS011;51256;55.654;37.264;2022-07-23T08:27:14;11.65;;;8.48;;
64820;SDS011;51256;55.654;37.264;2022-07-23T08:29:40;12.50;;;8.75;;
64820;SDS011;51256;55.654;37.264;2022-07-23T08:32:05;11.15;;;8.73;;
64820;SDS011;51256;55.654;37.264;2022-07-23T08:34:31;14.00;;;8.85;;
64820;SDS011;51256;55.654;37.264;2022-07-23T08:36:56;9.90;;;8.55;;
64820;SDS011;51256;55.654;37.264;2022-07-23T08:39:22;12.27;;;8.48;;
64820;SDS011;51256;55.654;37.264;2022-07-23T08:41:47;11.15;;;8.20;;
64820;SDS011;51256;55.654;37.264;2022-07-23T08:44:15;10.23;;;8.27;;
64820;SDS011;51256;55.654;37.264;2022-07-23T08:46:41;9.48;;;8.38;;
64820;SDS011;51256;55.654;37.264;2022-07-23T08:49:08;12.77;;;8.05;;
64820;SDS011;51256;55.654;37.264;2022-07-23T08:51:34;10.90;;;8.13;;
64820;SDS011;51256;55.654;37.264;2022-07-23T08:53:59;10.40;;;8.25;;
64820;SDS011;51256;55.654;37.264;2022-07-23T08:56:26;11.32;;;9.18;;
64820;SDS011;51256;55.654;37.264;2022-07-23T08:58:53;13.43;;;8.50;;
64820;SDS011;51256;55.654;37.264;2022-07-23T09:01:18;8.90;;;7.93;;
64820;SDS011;51256;55.654;37.264;2022-07-23T09:03:44;12.43;;;8.82;;
64820;SDS011;51256;55.654;37.264;2022-07-23T09:06:10;12.65;;;8.55;;
64820;SDS011;51256;55.654;37.264;2022-07-23T09:08:39;13.05;;;8.35;;
64820;SDS011;51256;55.654;37.264;2022-07-23T09:11:07;10.85;;;8.35;;
64820;SDS011;51256;55.654;37.264;2022-07-23T09:13:35;10.93;;;8.68;;
64820;SDS011;51256;55.654;37.264;2022-07-23T09:16:23;10.25;;;8.50;;
64820;SDS011;51256;55.654;37.264;2022-07-23T09:18:56;10.73;;;8.57;;
64820;SDS011;51256;55.654;37.264;2022-07-23T09:21:25;11.98;;;8.63;;
64820;SDS011;51256;55.654;37.264;2022-07-23T09:23:59;12.73;;;9.30;;
64820;SDS011;51256;55.654;37.264;2022-07-23T09:31:33;13.15;;;9.35;;
64820;SDS011;51256;55.654;37.264;2022-07-23T09:34:12;12.98;;;9.13;;
64820;SDS011;51256;55.654;37.264;2022-07-23T09:36:41;12.57;;;8.77;;
64820;SDS011;51256;55.654;37.264;2022-07-23T09:39:07;12.23;;;9.05;;
64820;SDS011;51256;55.654;37.264;2022-07-23T09:41:34;11.68;;;9.15;;
64820;SDS011;51256;55.654;37.264;2022-07-23T09:44:06;13.07;;;9.48;;
64820;SDS011;51256;55.654;37.264;2022-07-23T09:46:36;12.32;;;8.90;;
64820;SDS011;51256;55.654;37.264;2022-07-23T09:49:11;12.17;;;9.13;;
64820;SDS011;51256;55.654;37.264;2022-07-23T09:57:01;12.93;;;9.27;;
64820;SDS011;51256;55.654;37.264;2022-07-23T09:59:37;10.13;;;9.07;;
64820;SDS011;51256;55.654;37.264;2022-07-23T10:02:04;14.45;;;10.10;;
64820;SDS011;51256;55.654;37.264;2022-07-23T10:04:37;12.77;;;9.60;;
64820;SDS011;51256;55.654;37.264;2022-07-23T10:07:04;11.00;;;9.45;;
64820;SDS011;51256;55.654;37.264;2022-07-23T10:09:34;11.90;;;9.40;;
64820;SDS011;51256;55.654;37.264;2022-07-23T10:12:02;12.85;;;9.77;;
64820;SDS011;51256;55.654;37.264;2022-07-23T10:14:46;15.63;;;9.80;;
64820;SDS011;51256;55.654;37.264;2022-07-23T10:17:13;12.73;;;9.65;;
64820;SDS011;51256;55.654;37.264;2022-07-23T10:19:39;11.95;;;9.45;;
64820;SDS011;51256;55.654;37.264;2022-07-23T10:22:09;11.20;;;9.50;;
64820;SDS011;51256;55.654;37.264;2022-07-23T10:39:05;12.65;;;9.90;;
64820;SDS011;51256;55.654;37.264;2022-07-23T10:41:34;13.85;;;9.80;;
64820;SDS011;51256;55.654;37.264;2022-07-23T10:49:30;15.48;;;10.10;;
64820;SDS011;51256;55.654;37.264;2022-07-23T10:54:48;12.18;;;9.77;;
64820;SDS011;51256;55.654;37.264;2022-07-23T10:57:23;11.60;;;8.82;;
64820;SDS011;51256;55.654;37.264;2022-07-23T11:02:37;14.05;;;9.05;;
64820;SDS011;51256;55.654;37.264;2022-07-23T11:05:14;13.07;;;9.38;;
64820;SDS011;51256;55.654;37.264;2022-07-23T11:19:08;13.77;;;9.38;;
64820;SDS011;51256;55.654;37.264;2022-07-23T11:32:00;12.52;;;9.52;;
64820;SDS011;51256;55.654;37.264;2022-07-23T11:34:29;12.48;;;10.20;;
64820;SDS011;51256;55.654;37.264;2022-07-23T11:36:59;12.30;;;9.73;;
64820;SDS011;51256;55.654;37.264;2022-07-23T11:39:26;11.25;;;9.88;;
64820;SDS011;51256;55.654;37.264;2022-07-23T11:41:53;11.13;;;9.93;;
64820;SDS011;51256;55.654;37.264;2022-07-23T11:46:56;13.52;;;8.73;;
64820;SDS011;51256;55.654;37.264;2022-07-23T11:49:34;12.70;;;9.00;;
64820;SDS011;51256;55.654;37.264;2022-07-23T11:54:32;13.27;;;9.45;;
64820;SDS011;51256;55.654;37.264;2022-07-23T11:57:00;12.27;;;9.60;;
64820;SDS011;51256;55.654;37.264;2022-07-23T11:59:26;12.80;;;9.35;;
64820;SDS011;51256;55.654;37.264;2022-07-23T12:01:56;15.43;;;9.50;;
64820;SDS011;51256;55.654;37.264;2022-07-23T12:04:24;14.25;;;9.30;;
64820;SDS011;51256;55.654;37.264;2022-07-23T12:07:01;11.98;;;8.82;;
64820;SDS011;51256;55.654;37.264;2022-07-23T12:09:27;12.70;;;9.07;;
64820;SDS011;51256;55.654;37.264;2022-07-23T12:11:56;11.95;;;9.23;;
64820;SDS011;51256;55.654;37.264;2022-07-23T12:14:25;12.82;;;9.13;;
64820;SDS011;51256;55.654;37.264;2022-07-23T12:17:07;11.02;;;8.88;;
64820;SDS011;51256;55.654;37.264;2022-07-23T12:19:33;11.43;;;8.93;;
64820;SDS011;51256;55.654;37.264;2022-07-23T12:21:59;12.02;;;8.85;;
64820;SDS011;51256;55.654;37.264;2022-07-23T12:24:25;11.05;;;9.00;;
64820;SDS011;51256;55.654;37.264;2022-07-23T12:29:39;10.85;;;8.77;;
64820;SDS011;51256;55.654;37.264;2022-07-23T12:32:26;10.95;;;8.57;;
64820;SDS011;51256;55.654;37.264;2022-07-23T12:35:06;10.27;;;9.25;;
64820;SDS011;51256;55.654;37.264;2022-07-23T12:37:37;12.45;;;9.57;;
64820;SDS011;51256;55.654;37.264;2022-07-23T12:42:49;13.05;;;9.10;;
64820;SDS011;51256;55.654;37.264;2022-07-23T12:45:16;12.02;;;8.48;;
64820;SDS011;51256;55.654;37.264;2022-07-23T12:47:56;11.80;;;8.70;;
64820;SDS011;51256;55.654;37.264;2022-07-23T12:50:36;10.43;;;8.88;;
64820;SDS011;51256;55.654;37.264;2022-07-23T12:53:14;11.27;;;8.88;;
64820;SDS011;51256;55.654;37.264;2022-07-23T12:55:41;9.90;;;8.55;;
64820;SDS011;51256;55.654;37.264;2022-07-23T12:58:13;11.38;;;9.52;;
64820;SDS011;51256;55.654;37.264;2022-07-23T13:05:57;10.68;;;8.82;;
64820;SDS011;51256;55.654;37.264;2022-07-23T13:08:24;14.25;;;9.32;;
64820;SDS011;51256;55.654;37.264;2022-07-23T13:10:51;13.93;;;9.20;;
64820;SDS011;51256;55.654;37.264;2022-07-23T13:13:21;12.25;;;8.73;;
64820;SDS011;51256;55.654;37.264;2022-07-23T13:15:52;11.63;;;9.30;;
64820;SDS011;51256;55.654;37.264;2022-07-23T13:18:17;10.90;;;7.88;;
64820;SDS011;51256;55.654;37.264;2022-07-23T13:20:44;12.50;;;8.88;;
64820;SDS011;51256;55.654;37.264;2022-07-23T13:23:10;10.43;;;8.05;;
64820;SDS011;51256;55.654;37.264;2022-07-23T13:25:37;12.10;;;8.35;;
64820;SDS011;51256;55.654;37.264;2022-07-23T13:28:02;12.65;;;8.60;;
64820;SDS011;51256;55.654;37.264;2022-07-23T13:30:28;15.13;;;9.00;;
64820;SDS011;51256;55.654;37.264;2022-07-23T13:32:54;10.23;;;8.52;;
64820;SDS011;51256;55.654;37.264;2022-07-23T13:35:19;14.90;;;9.00;;
64820;SDS011;51256;55.654;37.264;2022-07-23T13:37:45;9.90;;;8.60;;
64820;SDS011;51256;55.654;37.264;2022-07-23T13:40:10;9.90;;;8.90;;
64820;SDS011;51256;55.654;37.264;2022-07-23T13:42:36;12.95;;;8.52;;
64820;SDS011;51256;55.654;37.264;2022-07-23T13:45:03;13.30;;;8.68;;
64820;SDS011;51256;55.654;37.264;2022-07-23T13:47:29;10.18;;;8.40;;
64820;SDS011;51256;55.654;37.264;2022-07-23T13:49:55;13.25;;;8.90;;
64820;SDS011;51256;55.654;37.264;2022-07-23T13:52:20;10.95;;;8.80;;
64820;SDS011;51256;55.654;37.264;2022-07-23T13:54:46;11.32;;;10.10;;
64820;SDS011;51256;55.654;37.264;2022-07-23T13:57:11;9.25;;;8.25;;
64820;SDS011;51256;55.654;37.264;2022-07-23T13:59:37;9.75;;;8.75;;
64820;SDS011;51256;55.654;37.264;2022-07-23T14:02:03;12.35;;;8.13;;
64820;SDS011;51256;55.654;37.264;2022-07-23T14:04:29;11.45;;;8.90;;
64820;SDS011;51256;55.654;37.264;2022-07-23T14:06:55;11.57;;;8.80;;
64820;SDS011;51256;55.654;37.264;2022-07-23T14:09:20;10.40;;;8.40;;
64820;SDS011;51256;55.654;37.264;2022-07-23T14:11:47;11.15;;;8.43;;
64820;SDS011;51256;55.654;37.264;2022-07-23T14:14:12;9.45;;;8.45;;
64820;SDS011;51256;55.654;37.264;2022-07-23T14:16:38;14.88;;;8.80;;
64820;SDS011;51256;55.654;37.264;2022-07-23T14:19:04;10.52;;;8.30;;
64820;SDS011;51256;55.654;37.264;2022-07-23T14:21:29;13.15;;;8.82;;
64820;SDS011;51256;55.654;37.264;2022-07-23T14:23:55;9.52;;;8.52;;
64820;SDS011;51256;55.654;37.264;2022-07-23T14:26:20;12.38;;;8.57;;
64820;SDS011;51256;55.654;37.264;2022-07-23T14:28:46;9.45;;;8.55;;
64820;SDS011;51256;55.654;37.264;2022-07-23T14:31:11;8.93;;;8.05;;
64820;SDS011;51256;55.654;37.264;2022-07-23T14:33:37;10.88;;;8.65;;
64820;SDS011;51256;55.654;37.264;2022-07-23T14:36:03;11.80;;;8.05;;
64820;SDS011;51256;55.654;37.264;2022-07-23T14:38:28;8.98;;;7.93;;
64820;SDS011;51256;55.654;37.264;2022-07-23T14:40:55;14.77;;;8.40;;
64820;SDS011;51256;55.654;37.264;2022-07-23T14:43:21;10.13;;;7.72;;
64820;SDS011;51256;55.654;37.264;2022-07-23T14:45:47;9.95;;;7.65;;
64820;SDS011;51256;55.654;37.264;2022-07-23T14:48:12;14.13;;;8.05;;
64820;SDS011;51256;55.654;37.264;2022-07-23T14:50:38;10.50;;;7.85;;
64820;SDS011;51256;55.654;37.264;2022-07-23T14:53:04;9.27;;;7.13;;
64820;SDS011;51256;55.654;37.264;2022-07-23T14:55:33;9.70;;;7.72;;
64820;SDS011;51256;55.654;37.264;2022-07-23T14:57:59;10.65;;;8.20;;
64820;SDS011;51256;55.654;37.264;2022-07-23T15:00:25;10.55;;;7.88;;
64820;SDS011;51256;55.654;37.264;2022-07-23T15:02:51;9.85;;;8.07;;
64820;SDS011;51256;55.654;37.264;2022-07-23T15:05:17;8.88;;;7.72;;
64820;SDS011;51256;55.654;37.264;2022-07-23T15:07:43;11.43;;;8.93;;
64820;SDS011;51256;55.654;37.264;2022-07-23T15:10:08;8.82;;;7.93;;
64820;SDS011;51256;55.654;37.264;2022-07-23T15:12:34;9.30;;;7.63;;
64820;SDS011;51256;55.654;37.264;2022-07-23T15:15:00;10.77;;;8.25;;
64820;SDS011;51256;55.654;37.264;2022-07-23T15:17:25;8.80;;;7.90;;
64820;SDS011;51256;55.654;37.264;2022-07-23T15:19:51;9.25;;;8.02;;
64820;SDS011;51256;55.654;37.264;2022-07-23T15:22:16;8.82;;;7.97;;
64820;SDS011;51256;55.654;37.264;2022-07-23T15:24:42;8.75;;;7.78;;
64820;SDS011;51256;55.654;37.264;2022-07-23T15:27:08;8.98;;;8.07;;
64820;SDS011;51256;55.654;37.264;2022-07-23T15:29:34;9.60;;;7.85;;
64820;SDS011;51256;55.654;37.264;2022-07-23T15:31:59;8.82;;;7.90;;
64820;SDS011;51256;55.654;37.264;2022-07-23T15:34:25;8.77;;;7.88;;